sensor_id;sensor_type;location;lat;lon;timestamp;temperature;humidity
6518;DHT22;3292;48.944;9.240;2023-06-14T00:00:15;15.90;99.50
6518;DHT22;3292;48.944;9.240;2023-06-14T00:02:42;15.90;99.90
6518;DHT22;3292;48.944;9.240;2023-06-14T00:05:09;15.90;99.90
6518;DHT22;3292;48.944;9.240;2023-06-14T00:07:39;15.90;99.90
6518;DHT22;3292;48.944;9.240;2023-06-14T00:10:09;15.80;99.90
6518;DHT22;3292;48.944;9.240;2023-06-14T00:12:38;15.80;99.90
6518;DHT22;3292;48.944;9.240;2023-06-14T00:15:06;15.70;99.90
6518;DHT22;3292;48.944;9.240;2023-06-14T00:17:35;15.70;99.90
6518;DHT22;3292;48.944;9.240;2023-06-14T00:20:03;15.70;99.90
6518;DHT22;3292;48.944;9.240;2023-06-14T00:22:33;15.70;99.90
6518;DHT22;3292;48.944;9.240;2023-06-14T00:25:02;15.70;99.90
6518;DHT22;3292;48.944;9.240;2023-06-14T00:27:29;15.70;99.90
6518;DHT22;3292;48.944;9.240;2023-06-14T00:29:57;15.60;99.90
6518;DHT22;3292;48.944;9.240;2023-06-14T00:32:24;15.60;99.90
6518;DHT22;3292;48.944;9.240;2023-06-14T00:34:53;15.60;99.90
6518;DHT22;3292;48.944;9.240;2023-06-14T00:37:20;15.50;99.90
6518;DHT22;3292;48.944;9.240;2023-06-14T00:39:46;15.50;99.90
6518;DHT22;3292;48.944;9.240;2023-06-14T00:42:23;15.40;99.90
6518;DHT22;3292;48.944;9.240;2023-06-14T00:44:50;15.40;99.90
6518;DHT22;3292;48.944;9.240;2023-06-14T00:47:19;15.30;99.90
6518;DHT22;3292;48.944;9.240;2023-06-14T00:49:46;15.30;99.90
6518;DHT22;3292;48.944;9.240;2023-06-14T00:52:14;15.20;99.90
6518;DHT22;3292;48.944;9.240;2023-06-14T00:54:42;15.20;99.90
6518;DHT22;3292;48.944;9.240;2023-06-14T00:57:09;15.20;99.90
6518;DHT22;3292;48.944;9.240;2023-06-14T00:59:40;15.20;99.90
6518;DHT22;3292;48.944;9.240;2023-06-14T01:02:08;15.20;99.90
6518;DHT22;3292;48.944;9.240;2023-06-14T01:04:36;15.20;99.90
6518;DHT22;3292;48.944;9.240;2023-06-14T01:07:09;15.10;99.90
6518;DHT22;3292;48.944;9.240;2023-06-14T01:09:47;15.10;99.90
6518;DHT22;3292;48.944;9.240;2023-06-14T01:12:18;15.10;99.90
6518;DHT22;3292;48.944;9.240;2023-06-14T01:14:47;15.10;99.90
6518;DHT22;3292;48.944;9.240;2023-06-14T01:17:15;15.00;99.90
6518;DHT22;3292;48.944;9.240;2023-06-14T01:19:44;15.00;99.90
6518;DHT22;3292;48.944;9.240;2023-06-14T01:22:11;15.00;99.90
6518;DHT22;3292;48.944;9.240;2023-06-14T01:24:39;14.90;99.90
6518;DHT22;3292;48.944;9.240;2023-06-14T01:27:11;14.90;99.90
6518;DHT22;3292;48.944;9.240;2023-06-14T01:29:38;14.90;99.90
6518;DHT22;3292;48.944;9.240;2023-06-14T01:32:11;14.90;99.90
6518;DHT22;3292;48.944;9.240;2023-06-14T01:34:39;14.80;99.90
6518;DHT22;3292;48.944;9.240;2023-06-14T01:37:06;14.80;99.90
6518;DHT22;3292;48.944;9.240;2023-06-14T01:39:34;14.80;99.90
6518;DHT22;3292;48.944;9.240;2023-06-14T01:42:03;14.80;99.90
6518;DHT22;3292;48.944;9.240;2023-06-14T01:44:30;14.80;99.90
6518;DHT22;3292;48.944;9.240;2023-06-14T01:46:58;14.70;99.90
6518;DHT22;3292;48.944;9.240;2023-06-14T01:49:26;14.70;99.90
6518;DHT22;3292;48.944;9.240;2023-06-14T01:51:53;14.70;99.90
6518;DHT22;3292;48.944;9.240;2023-06-14T01:54:20;14.60;99.90
6518;DHT22;3292;48.944;9.240;2023-06-14T01:56:48;14.60;99.90
6518;DHT22;3292;48.944;9.240;2023-06-14T01:59:16;14.50;99.90
6518;DHT22;3292;48.944;9.240;2023-06-14T02:01:45;14.50;99.90
6518;DHT22;3292;48.944;9.240;2023-06-14T02:04:12;14.50;99.90
6518;DHT22;3292;48.944;9.240;2023-06-14T02:06:39;14.50;99.90
6518;DHT22;3292;48.944;9.240;2023-06-14T02:09:05;14.50;99.90
6518;DHT22;3292;48.944;9.240;2023-06-14T02:11:32;14.50;99.90
6518;DHT22;3292;48.944;9.240;2023-06-14T02:13:59;14.30;99.90
6518;DHT22;3292;48.944;9.240;2023-06-14T02:16:28;14.10;99.90
6518;DHT22;3292;48.944;9.240;2023-06-14T02:18:55;14.10;99.90
6518;DHT22;3292;48.944;9.240;2023-06-14T02:21:22;14.10;99.90
6518;DHT22;3292;48.944;9.240;2023-06-14T02:23:49;14.10;99.90
6518;DHT22;3292;48.944;9.240;2023-06-14T02:26:16;14.10;99.90
6518;DHT22;3292;48.944;9.240;2023-06-14T02:28:43;14.10;99.90
6518;DHT22;3292;48.944;9.240;2023-06-14T02:31:09;14.10;99.90
6518;DHT22;3292;48.944;9.240;2023-06-14T02:33:37;14.00;99.90
6518;DHT22;3292;48.944;9.240;2023-06-14T02:36:05;13.90;99.90
6518;DHT22;3292;48.944;9.240;2023-06-14T02:38:32;13.80;99.90
6518;DHT22;3292;48.944;9.240;2023-06-14T02:40:59;13.80;99.90
6518;DHT22;3292;48.944;9.240;2023-06-14T02:43:28;13.80;99.90
6518;DHT22;3292;48.944;9.240;2023-06-14T02:45:55;13.80;99.90
6518;DHT22;3292;48.944;9.240;2023-06-14T02:48:22;13.80;99.90
6518;DHT22;3292;48.944;9.240;2023-06-14T02:50:50;13.80;99.90
6518;DHT22;3292;48.944;9.240;2023-06-14T02:53:17;13.70;99.90
6518;DHT22;3292;48.944;9.240;2023-06-14T02:55:43;13.70;99.90
6518;DHT22;3292;48.944;9.240;2023-06-14T02:58:12;13.70;99.90
6518;DHT22;3292;48.944;9.240;2023-06-14T03:00:39;13.70;99.90
6518;DHT22;3292;48.944;9.240;2023-06-14T03:03:06;13.70;99.90
6518;DHT22;3292;48.944;9.240;2023-06-14T03:05:40;13.70;99.90
6518;DHT22;3292;48.944;9.240;2023-06-14T03:08:08;13.60;99.90
6518;DHT22;3292;48.944;9.240;2023-06-14T03:10:35;13.50;99.90
6518;DHT22;3292;48.944;9.240;2023-06-14T03:13:04;13.50;99.90
6518;DHT22;3292;48.944;9.240;2023-06-14T03:15:32;13.40;99.90
6518;DHT22;3292;48.944;9.240;2023-06-14T03:17:59;13.40;99.90
6518;DHT22;3292;48.944;9.240;2023-06-14T03:20:26;13.40;99.90
6518;DHT22;3292;48.944;9.240;2023-06-14T03:22:58;13.40;99.90
6518;DHT22;3292;48.944;9.240;2023-06-14T03:25:26;13.40;99.90
6518;DHT22;3292;48.944;9.240;2023-06-14T03:27:54;13.30;99.90
6518;DHT22;3292;48.944;9.240;2023-06-14T03:30:21;13.40;99.90
6518;DHT22;3292;48.944;9.240;2023-06-14T03:32:48;13.40;99.90
6518;DHT22;3292;48.944;9.240;2023-06-14T03:35:16;13.40;99.90
6518;DHT22;3292;48.944;9.240;2023-06-14T03:37:43;13.30;99.90
6518;DHT22;3292;48.944;9.240;2023-06-14T03:40:11;13.30;99.90
6518;DHT22;3292;48.944;9.240;2023-06-14T03:42:40;13.30;99.90
6518;DHT22;3292;48.944;9.240;2023-06-14T03:45:07;13.30;99.90
6518;DHT22;3292;48.944;9.240;2023-06-14T03:47:34;13.30;99.90
6518;DHT22;3292;48.944;9.240;2023-06-14T03:50:01;13.30;99.90
6518;DHT22;3292;48.944;9.240;2023-06-14T03:52:28;13.30;99.90
6518;DHT22;3292;48.944;9.240;2023-06-14T03:54:56;13.30;99.90
6518;DHT22;3292;48.944;9.240;2023-06-14T03:57:25;13.30;99.90
6518;DHT22;3292;48.944;9.240;2023-06-14T03:59:54;13.40;99.90
6518;DHT22;3292;48.944;9.240;2023-06-14T04:02:20;13.40;99.90
6518;DHT22;3292;48.944;9.240;2023-06-14T04:04:48;13.40;99.90
6518;DHT22;3292;48.944;9.240;2023-06-14T04:07:15;13.50;99.90
6518;DHT22;3292;48.944;9.240;2023-06-14T04:09:45;13.50;99.90
6518;DHT22;3292;48.944;9.240;2023-06-14T04:12:12;13.50;99.90
6518;DHT22;3292;48.944;9.240;2023-06-14T04:14:39;13.50;99.90
6518;DHT22;3292;48.944;9.240;2023-06-14T04:17:07;13.50;99.90
6518;DHT22;3292;48.944;9.240;2023-06-14T04:19:34;13.50;99.90
6518;DHT22;3292;48.944;9.240;2023-06-14T04:22:01;13.60;99.90
6518;DHT22;3292;48.944;9.240;2023-06-14T04:24:28;13.60;99.90
6518;DHT22;3292;48.944;9.240;2023-06-14T04:26:58;13.60;99.90
6518;DHT22;3292;48.944;9.240;2023-06-14T04:29:28;13.60;99.90
6518;DHT22;3292;48.944;9.240;2023-06-14T04:31:56;13.60;99.90
6518;DHT22;3292;48.944;9.240;2023-06-14T04:34:27;13.50;99.90
6518;DHT22;3292;48.944;9.240;2023-06-14T04:36:55;13.50;99.90
6518;DHT22;3292;48.944;9.240;2023-06-14T04:39:24;13.50;99.90
6518;DHT22;3292;48.944;9.240;2023-06-14T04:41:51;13.50;99.90
6518;DHT22;3292;48.944;9.240;2023-06-14T04:44:22;13.50;99.90
6518;DHT22;3292;48.944;9.240;2023-06-14T04:46:57;13.60;99.90
6518;DHT22;3292;48.944;9.240;2023-06-14T04:49:24;13.60;99.90
6518;DHT22;3292;48.944;9.240;2023-06-14T04:51:56;13.60;99.90
6518;DHT22;3292;48.944;9.240;2023-06-14T04:54:24;13.70;99.90
6518;DHT22;3292;48.944;9.240;2023-06-14T04:56:51;13.80;99.90
6518;DHT22;3292;48.944;9.240;2023-06-14T04:59:18;13.90;99.90
6518;DHT22;3292;48.944;9.240;2023-06-14T05:01:45;13.90;99.90
6518;DHT22;3292;48.944;9.240;2023-06-14T05:04:13;14.00;99.90
6518;DHT22;3292;48.944;9.240;2023-06-14T05:06:40;14.10;99.90
6518;DHT22;3292;48.944;9.240;2023-06-14T05:09:08;14.10;99.90
6518;DHT22;3292;48.944;9.240;2023-06-14T05:11:35;14.10;99.90
6518;DHT22;3292;48.944;9.240;2023-06-14T05:14:05;14.10;99.90
6518;DHT22;3292;48.944;9.240;2023-06-14T05:16:32;14.10;99.90
6518;DHT22;3292;48.944;9.240;2023-06-14T05:18:59;14.20;99.90
6518;DHT22;3292;48.944;9.240;2023-06-14T05:21:26;14.30;99.90
6518;DHT22;3292;48.944;9.240;2023-06-14T05:23:53;14.40;99.90
6518;DHT22;3292;48.944;9.240;2023-06-14T05:26:22;14.50;99.90
6518;DHT22;3292;48.944;9.240;2023-06-14T05:28:54;14.60;99.90
6518;DHT22;3292;48.944;9.240;2023-06-14T05:31:22;14.70;99.90
6518;DHT22;3292;48.944;9.240;2023-06-14T05:33:49;14.70;99.90
6518;DHT22;3292;48.944;9.240;2023-06-14T05:36:16;14.80;99.90
6518;DHT22;3292;48.944;9.240;2023-06-14T05:38:43;14.90;99.90
6518;DHT22;3292;48.944;9.240;2023-06-14T05:41:10;15.00;99.90
6518;DHT22;3292;48.944;9.240;2023-06-14T05:43:42;15.10;99.90
6518;DHT22;3292;48.944;9.240;2023-06-14T05:46:09;15.20;99.90
6518;DHT22;3292;48.944;9.240;2023-06-14T05:48:36;15.30;99.90
6518;DHT22;3292;48.944;9.240;2023-06-14T05:51:03;15.30;99.90
6518;DHT22;3292;48.944;9.240;2023-06-14T05:53:29;15.30;99.90
6518;DHT22;3292;48.944;9.240;2023-06-14T05:55:56;15.50;99.90
6518;DHT22;3292;48.944;9.240;2023-06-14T05:58:23;15.60;99.90
6518;DHT22;3292;48.944;9.240;2023-06-14T06:00:52;15.80;99.90
6518;DHT22;3292;48.944;9.240;2023-06-14T06:03:19;16.20;99.90
6518;DHT22;3292;48.944;9.240;2023-06-14T06:05:46;17.10;99.90
6518;DHT22;3292;48.944;9.240;2023-06-14T06:08:13;18.00;99.90
6518;DHT22;3292;48.944;9.240;2023-06-14T06:10:42;18.90;99.90
6518;DHT22;3292;48.944;9.240;2023-06-14T06:13:09;19.70;99.90
6518;DHT22;3292;48.944;9.240;2023-06-14T06:15:38;20.80;99.90
6518;DHT22;3292;48.944;9.240;2023-06-14T06:18:06;21.50;99.90
6518;DHT22;3292;48.944;9.240;2023-06-14T06:20:35;22.10;99.90
6518;DHT22;3292;48.944;9.240;2023-06-14T06:23:02;22.60;98.90
6518;DHT22;3292;48.944;9.240;2023-06-14T06:25:29;23.30;99.90
6518;DHT22;3292;48.944;9.240;2023-06-14T06:27:57;23.80;97.60
6518;DHT22;3292;48.944;9.240;2023-06-14T06:30:25;24.40;96.00
6518;DHT22;3292;48.944;9.240;2023-06-14T06:32:52;24.40;93.40
6518;DHT22;3292;48.944;9.240;2023-06-14T06:35:20;24.10;90.60
6518;DHT22;3292;48.944;9.240;2023-06-14T06:37:46;24.00;91.70
6518;DHT22;3292;48.944;9.240;2023-06-14T06:40:13;24.20;90.80
6518;DHT22;3292;48.944;9.240;2023-06-14T06:42:40;24.30;90.90
6518;DHT22;3292;48.944;9.240;2023-06-14T06:45:08;24.40;91.10
6518;DHT22;3292;48.944;9.240;2023-06-14T06:47:35;24.70;92.30
6518;DHT22;3292;48.944;9.240;2023-06-14T06:50:02;25.00;92.80
6518;DHT22;3292;48.944;9.240;2023-06-14T06:52:30;25.30;90.70
6518;DHT22;3292;48.944;9.240;2023-06-14T06:54:58;25.90;91.40
6518;DHT22;3292;48.944;9.240;2023-06-14T06:57:26;26.40;90.90
6518;DHT22;3292;48.944;9.240;2023-06-14T06:59:54;26.50;90.20
6518;DHT22;3292;48.944;9.240;2023-06-14T07:02:21;26.40;89.50
6518;DHT22;3292;48.944;9.240;2023-06-14T07:04:48;26.60;87.50
6518;DHT22;3292;48.944;9.240;2023-06-14T07:07:15;26.80;86.80
6518;DHT22;3292;48.944;9.240;2023-06-14T07:09:43;26.40;87.00
6518;DHT22;3292;48.944;9.240;2023-06-14T07:12:11;26.10;89.40
6518;DHT22;3292;48.944;9.240;2023-06-14T07:14:38;26.10;87.30
6518;DHT22;3292;48.944;9.240;2023-06-14T07:17:05;26.10;86.10
6518;DHT22;3292;48.944;9.240;2023-06-14T07:19:32;26.00;85.20
6518;DHT22;3292;48.944;9.240;2023-06-14T07:21:59;26.00;86.70
6518;DHT22;3292;48.944;9.240;2023-06-14T07:24:26;25.80;86.00
6518;DHT22;3292;48.944;9.240;2023-06-14T07:26:55;25.30;84.50
6518;DHT22;3292;48.944;9.240;2023-06-14T07:29:22;25.20;87.20
6518;DHT22;3292;48.944;9.240;2023-06-14T07:31:48;25.30;88.60
6518;DHT22;3292;48.944;9.240;2023-06-14T07:34:15;25.70;86.40
6518;DHT22;3292;48.944;9.240;2023-06-14T07:36:42;25.80;88.60
6518;DHT22;3292;48.944;9.240;2023-06-14T07:39:13;26.00;88.30
6518;DHT22;3292;48.944;9.240;2023-06-14T07:41:40;26.10;88.80
6518;DHT22;3292;48.944;9.240;2023-06-14T07:44:08;25.70;87.60
6518;DHT22;3292;48.944;9.240;2023-06-14T07:46:36;25.70;86.30
6518;DHT22;3292;48.944;9.240;2023-06-14T07:49:06;25.30;90.20
6518;DHT22;3292;48.944;9.240;2023-06-14T07:51:32;24.80;91.20
6518;DHT22;3292;48.944;9.240;2023-06-14T07:53:59;25.00;87.80
6518;DHT22;3292;48.944;9.240;2023-06-14T07:56:28;25.30;87.70
6518;DHT22;3292;48.944;9.240;2023-06-14T07:58:55;25.40;89.50
6518;DHT22;3292;48.944;9.240;2023-06-14T08:01:23;25.00;86.10
6518;DHT22;3292;48.944;9.240;2023-06-14T08:03:51;24.40;87.80
6518;DHT22;3292;48.944;9.240;2023-06-14T08:06:18;24.30;88.80
6518;DHT22;3292;48.944;9.240;2023-06-14T08:08:44;24.20;90.20
6518;DHT22;3292;48.944;9.240;2023-06-14T08:11:11;24.30;89.30
6518;DHT22;3292;48.944;9.240;2023-06-14T08:13:38;24.30;91.50
6518;DHT22;3292;48.944;9.240;2023-06-14T08:16:05;24.50;92.10
6518;DHT22;3292;48.944;9.240;2023-06-14T08:18:35;24.80;91.30
6518;DHT22;3292;48.944;9.240;2023-06-14T08:21:01;24.80;89.40
6518;DHT22;3292;48.944;9.240;2023-06-14T08:23:29;25.00;90.40
6518;DHT22;3292;48.944;9.240;2023-06-14T08:25:56;24.70;91.00
6518;DHT22;3292;48.944;9.240;2023-06-14T08:28:24;25.00;91.00
6518;DHT22;3292;48.944;9.240;2023-06-14T08:30:51;25.20;91.70
6518;DHT22;3292;48.944;9.240;2023-06-14T08:33:17;25.10;90.40
6518;DHT22;3292;48.944;9.240;2023-06-14T08:35:45;25.10;91.50
6518;DHT22;3292;48.944;9.240;2023-06-14T08:38:12;25.10;91.30
6518;DHT22;3292;48.944;9.240;2023-06-14T08:40:40;25.30;91.10
6518;DHT22;3292;48.944;9.240;2023-06-14T08:43:08;25.30;91.40
6518;DHT22;3292;48.944;9.240;2023-06-14T08:45:35;25.50;90.90
6518;DHT22;3292;48.944;9.240;2023-06-14T08:48:02;25.50;91.00
6518;DHT22;3292;48.944;9.240;2023-06-14T08:50:30;25.80;89.20
6518;DHT22;3292;48.944;9.240;2023-06-14T08:53:01;25.90;90.00
6518;DHT22;3292;48.944;9.240;2023-06-14T08:55:29;25.80;90.10
6518;DHT22;3292;48.944;9.240;2023-06-14T08:57:57;25.90;87.30
6518;DHT22;3292;48.944;9.240;2023-06-14T09:00:25;25.60;87.60
6518;DHT22;3292;48.944;9.240;2023-06-14T09:02:52;25.30;89.80
6518;DHT22;3292;48.944;9.240;2023-06-14T09:05:23;25.60;89.90
6518;DHT22;3292;48.944;9.240;2023-06-14T09:07:51;25.30;87.50
6518;DHT22;3292;48.944;9.240;2023-06-14T09:10:21;25.30;88.30
6518;DHT22;3292;48.944;9.240;2023-06-14T09:12:48;25.30;86.70
6518;DHT22;3292;48.944;9.240;2023-06-14T09:15:15;25.50;89.30
6518;DHT22;3292;48.944;9.240;2023-06-14T09:17:43;25.70;88.70
6518;DHT22;3292;48.944;9.240;2023-06-14T09:20:10;25.80;88.90
6518;DHT22;3292;48.944;9.240;2023-06-14T09:22:39;25.60;88.20
6518;DHT22;3292;48.944;9.240;2023-06-14T09:25:07;25.00;84.10
6518;DHT22;3292;48.944;9.240;2023-06-14T09:27:37;25.10;87.80
6518;DHT22;3292;48.944;9.240;2023-06-14T09:30:06;25.40;87.70
6518;DHT22;3292;48.944;9.240;2023-06-14T09:32:36;25.90;89.90
6518;DHT22;3292;48.944;9.240;2023-06-14T09:35:04;26.20;85.20
6518;DHT22;3292;48.944;9.240;2023-06-14T09:37:31;26.30;84.80
6518;DHT22;3292;48.944;9.240;2023-06-14T09:39:59;26.50;82.90
6518;DHT22;3292;48.944;9.240;2023-06-14T09:42:26;26.60;80.20
6518;DHT22;3292;48.944;9.240;2023-06-14T09:44:56;26.70;82.80
6518;DHT22;3292;48.944;9.240;2023-06-14T09:47:23;27.00;82.60
6518;DHT22;3292;48.944;9.240;2023-06-14T09:49:51;27.00;76.90
6518;DHT22;3292;48.944;9.240;2023-06-14T09:52:20;26.90;77.30
6518;DHT22;3292;48.944;9.240;2023-06-14T09:54:48;27.00;79.30
6518;DHT22;3292;48.944;9.240;2023-06-14T09:57:16;26.90;80.70
6518;DHT22;3292;48.944;9.240;2023-06-14T09:59:47;27.10;76.30
6518;DHT22;3292;48.944;9.240;2023-06-14T10:02:21;26.80;77.00
6518;DHT22;3292;48.944;9.240;2023-06-14T10:04:56;26.80;76.50
6518;DHT22;3292;48.944;9.240;2023-06-14T10:07:26;27.10;73.40
6518;DHT22;3292;48.944;9.240;2023-06-14T10:09:57;26.90;69.40
6518;DHT22;3292;48.944;9.240;2023-06-14T10:12:24;26.50;73.30
6518;DHT22;3292;48.944;9.240;2023-06-14T10:14:52;26.50;72.90
6518;DHT22;3292;48.944;9.240;2023-06-14T10:17:30;26.70;72.10
6518;DHT22;3292;48.944;9.240;2023-06-14T10:20:10;27.00;70.50
6518;DHT22;3292;48.944;9.240;2023-06-14T10:22:44;26.80;71.20
6518;DHT22;3292;48.944;9.240;2023-06-14T10:25:26;26.70;71.80
6518;DHT22;3292;48.944;9.240;2023-06-14T10:28:02;26.40;71.00
6518;DHT22;3292;48.944;9.240;2023-06-14T10:30:29;25.90;70.80
6518;DHT22;3292;48.944;9.240;2023-06-14T10:33:07;25.70;71.60
6518;DHT22;3292;48.944;9.240;2023-06-14T10:35:35;25.40;68.80
6518;DHT22;3292;48.944;9.240;2023-06-14T10:38:09;25.70;72.10
6518;DHT22;3292;48.944;9.240;2023-06-14T10:40:36;26.00;68.10
6518;DHT22;3292;48.944;9.240;2023-06-14T10:43:21;25.80;69.50
6518;DHT22;3292;48.944;9.240;2023-06-14T10:46:14;25.60;71.40
6518;DHT22;3292;48.944;9.240;2023-06-14T10:48:43;25.40;71.70
6518;DHT22;3292;48.944;9.240;2023-06-14T10:51:17;25.20;68.80
6518;DHT22;3292;48.944;9.240;2023-06-14T10:53:46;25.10;70.90
6518;DHT22;3292;48.944;9.240;2023-06-14T10:56:26;25.10;71.80
6518;DHT22;3292;48.944;9.240;2023-06-14T10:58:53;25.40;69.80
6518;DHT22;3292;48.944;9.240;2023-06-14T11:01:31;25.00;66.20
6518;DHT22;3292;48.944;9.240;2023-06-14T11:04:07;25.30;70.90
6518;DHT22;3292;48.944;9.240;2023-06-14T11:06:46;26.00;69.80
6518;DHT22;3292;48.944;9.240;2023-06-14T11:09:41;26.40;68.50
6518;DHT22;3292;48.944;9.240;2023-06-14T11:12:13;26.20;65.30
6518;DHT22;3292;48.944;9.240;2023-06-14T11:14:41;26.20;71.20
6518;DHT22;3292;48.944;9.240;2023-06-14T11:17:08;25.90;69.20
6518;DHT22;3292;48.944;9.240;2023-06-14T11:19:36;25.30;65.70
6518;DHT22;3292;48.944;9.240;2023-06-14T11:22:03;24.80;67.30
6518;DHT22;3292;48.944;9.240;2023-06-14T11:24:32;24.60;66.90
6518;DHT22;3292;48.944;9.240;2023-06-14T11:26:59;24.50;70.80
6518;DHT22;3292;48.944;9.240;2023-06-14T11:29:26;24.70;68.80
6518;DHT22;3292;48.944;9.240;2023-06-14T11:31:55;24.90;70.90
6518;DHT22;3292;48.944;9.240;2023-06-14T11:34:22;24.90;67.60
6518;DHT22;3292;48.944;9.240;2023-06-14T11:36:50;24.90;71.50
6518;DHT22;3292;48.944;9.240;2023-06-14T11:39:17;24.80;70.80
6518;DHT22;3292;48.944;9.240;2023-06-14T11:41:46;24.80;72.60
6518;DHT22;3292;48.944;9.240;2023-06-14T11:44:13;24.90;72.90
6518;DHT22;3292;48.944;9.240;2023-06-14T11:46:40;25.00;71.90
6518;DHT22;3292;48.944;9.240;2023-06-14T11:49:07;25.10;73.50
6518;DHT22;3292;48.944;9.240;2023-06-14T11:51:35;25.40;74.30
6518;DHT22;3292;48.944;9.240;2023-06-14T11:54:05;25.60;72.80
6518;DHT22;3292;48.944;9.240;2023-06-14T11:56:33;26.10;71.30
6518;DHT22;3292;48.944;9.240;2023-06-14T11:59:04;26.40;69.20
6518;DHT22;3292;48.944;9.240;2023-06-14T12:01:36;26.60;68.40
6518;DHT22;3292;48.944;9.240;2023-06-14T12:04:04;26.60;69.80
6518;DHT22;3292;48.944;9.240;2023-06-14T12:06:31;26.80;69.20
6518;DHT22;3292;48.944;9.240;2023-06-14T12:09:06;26.60;67.60
6518;DHT22;3292;48.944;9.240;2023-06-14T12:11:38;26.70;70.00
6518;DHT22;3292;48.944;9.240;2023-06-14T12:14:07;26.80;69.50
6518;DHT22;3292;48.944;9.240;2023-06-14T12:16:37;26.80;69.10
6518;DHT22;3292;48.944;9.240;2023-06-14T12:19:11;26.70;71.30
6518;DHT22;3292;48.944;9.240;2023-06-14T12:21:39;26.50;68.40
6518;DHT22;3292;48.944;9.240;2023-06-14T12:24:07;26.60;68.60
6518;DHT22;3292;48.944;9.240;2023-06-14T12:26:38;26.60;69.40
6518;DHT22;3292;48.944;9.240;2023-06-14T12:29:08;26.80;69.20
6518;DHT22;3292;48.944;9.240;2023-06-14T12:31:35;26.50;70.10
6518;DHT22;3292;48.944;9.240;2023-06-14T12:34:03;26.20;70.90
6518;DHT22;3292;48.944;9.240;2023-06-14T12:36:30;25.90;69.60
6518;DHT22;3292;48.944;9.240;2023-06-14T12:38:57;25.60;72.10
6518;DHT22;3292;48.944;9.240;2023-06-14T12:41:26;25.50;70.00
6518;DHT22;3292;48.944;9.240;2023-06-14T12:43:53;25.30;72.60
6518;DHT22;3292;48.944;9.240;2023-06-14T12:46:20;25.50;73.00
6518;DHT22;3292;48.944;9.240;2023-06-14T12:48:47;26.00;72.10
6518;DHT22;3292;48.944;9.240;2023-06-14T12:51:14;26.30;70.00
6518;DHT22;3292;48.944;9.240;2023-06-14T12:53:41;26.50;72.00
6518;DHT22;3292;48.944;9.240;2023-06-14T12:56:07;26.70;68.70
6518;DHT22;3292;48.944;9.240;2023-06-14T12:58:39;26.60;66.50
6518;DHT22;3292;48.944;9.240;2023-06-14T13:01:06;26.60;68.90
6518;DHT22;3292;48.944;9.240;2023-06-14T13:03:32;26.90;71.50
6518;DHT22;3292;48.944;9.240;2023-06-14T13:06:00;27.20;68.60
6518;DHT22;3292;48.944;9.240;2023-06-14T13:08:27;27.30;69.10
6518;DHT22;3292;48.944;9.240;2023-06-14T13:10:54;27.50;69.50
6518;DHT22;3292;48.944;9.240;2023-06-14T13:13:21;27.60;69.10
6518;DHT22;3292;48.944;9.240;2023-06-14T13:15:49;27.70;69.40
6518;DHT22;3292;48.944;9.240;2023-06-14T13:18:16;27.90;68.00
6518;DHT22;3292;48.944;9.240;2023-06-14T13:20:43;28.00;67.30
6518;DHT22;3292;48.944;9.240;2023-06-14T13:23:10;28.10;67.10
6518;DHT22;3292;48.944;9.240;2023-06-14T13:25:37;28.10;68.20
6518;DHT22;3292;48.944;9.240;2023-06-14T13:28:05;28.20;64.40
6518;DHT22;3292;48.944;9.240;2023-06-14T13:30:32;28.20;65.50
6518;DHT22;3292;48.944;9.240;2023-06-14T13:33:01;28.20;66.60
6518;DHT22;3292;48.944;9.240;2023-06-14T13:35:29;28.30;65.80
6518;DHT22;3292;48.944;9.240;2023-06-14T13:37:55;28.30;64.60
6518;DHT22;3292;48.944;9.240;2023-06-14T13:40:22;28.40;66.90
6518;DHT22;3292;48.944;9.240;2023-06-14T13:42:49;28.40;66.70
6518;DHT22;3292;48.944;9.240;2023-06-14T13:45:16;28.50;65.20
6518;DHT22;3292;48.944;9.240;2023-06-14T13:47:43;28.40;65.40
6518;DHT22;3292;48.944;9.240;2023-06-14T13:50:11;28.50;66.00
6518;DHT22;3292;48.944;9.240;2023-06-14T13:52:38;28.50;63.70
6518;DHT22;3292;48.944;9.240;2023-06-14T13:55:06;28.40;66.30
6518;DHT22;3292;48.944;9.240;2023-06-14T13:57:33;28.30;65.00
6518;DHT22;3292;48.944;9.240;2023-06-14T13:59:59;28.50;66.30
6518;DHT22;3292;48.944;9.240;2023-06-14T14:02:27;28.50;65.80
6518;DHT22;3292;48.944;9.240;2023-06-14T14:04:54;28.40;63.80
6518;DHT22;3292;48.944;9.240;2023-06-14T14:07:24;28.40;66.70
6518;DHT22;3292;48.944;9.240;2023-06-14T14:09:51;28.30;64.60
6518;DHT22;3292;48.944;9.240;2023-06-14T14:12:18;28.30;65.40
6518;DHT22;3292;48.944;9.240;2023-06-14T14:14:45;28.20;63.50
6518;DHT22;3292;48.944;9.240;2023-06-14T14:17:12;28.20;65.20
6518;DHT22;3292;48.944;9.240;2023-06-14T14:19:39;28.10;64.20
6518;DHT22;3292;48.944;9.240;2023-06-14T14:22:06;28.20;63.20
6518;DHT22;3292;48.944;9.240;2023-06-14T14:24:34;28.10;64.60
6518;DHT22;3292;48.944;9.240;2023-06-14T14:27:01;28.30;65.10
6518;DHT22;3292;48.944;9.240;2023-06-14T14:29:28;28.20;62.80
6518;DHT22;3292;48.944;9.240;2023-06-14T14:31:55;28.00;64.10
6518;DHT22;3292;48.944;9.240;2023-06-14T14:34:22;27.80;63.60
6518;DHT22;3292;48.944;9.240;2023-06-14T14:36:49;27.50;63.70
6518;DHT22;3292;48.944;9.240;2023-06-14T14:39:16;27.50;64.40
6518;DHT22;3292;48.944;9.240;2023-06-14T14:41:44;27.20;63.60
6518;DHT22;3292;48.944;9.240;2023-06-14T14:44:11;26.80;65.20
6518;DHT22;3292;48.944;9.240;2023-06-14T14:46:38;26.60;65.40
6518;DHT22;3292;48.944;9.240;2023-06-14T14:49:05;26.40;65.40
6518;DHT22;3292;48.944;9.240;2023-06-14T14:51:32;26.30;63.50
6518;DHT22;3292;48.944;9.240;2023-06-14T14:53:59;26.30;67.00
6518;DHT22;3292;48.944;9.240;2023-06-14T14:56:26;26.20;65.60
6518;DHT22;3292;48.944;9.240;2023-06-14T14:58:54;26.10;65.30
6518;DHT22;3292;48.944;9.240;2023-06-14T15:01:21;26.00;66.50
6518;DHT22;3292;48.944;9.240;2023-06-14T15:03:48;26.00;67.90
6518;DHT22;3292;48.944;9.240;2023-06-14T15:06:14;26.00;65.70
6518;DHT22;3292;48.944;9.240;2023-06-14T15:08:43;26.20;68.20
6518;DHT22;3292;48.944;9.240;2023-06-14T15:11:10;26.50;66.90
6518;DHT22;3292;48.944;9.240;2023-06-14T15:13:36;26.60;66.20
6518;DHT22;3292;48.944;9.240;2023-06-14T15:16:05;26.50;65.90
6518;DHT22;3292;48.944;9.240;2023-06-14T15:18:31;26.40;65.40
6518;DHT22;3292;48.944;9.240;2023-06-14T15:20:58;26.10;64.50
6518;DHT22;3292;48.944;9.240;2023-06-14T15:23:25;25.80;65.60
6518;DHT22;3292;48.944;9.240;2023-06-14T15:25:52;25.70;66.30
6518;DHT22;3292;48.944;9.240;2023-06-14T15:28:19;25.70;66.30
6518;DHT22;3292;48.944;9.240;2023-06-14T15:30:47;25.70;66.60
6518;DHT22;3292;48.944;9.240;2023-06-14T15:33:15;25.80;65.60
6518;DHT22;3292;48.944;9.240;2023-06-14T15:35:42;25.90;66.00
6518;DHT22;3292;48.944;9.240;2023-06-14T15:38:11;26.00;66.20
6518;DHT22;3292;48.944;9.240;2023-06-14T15:40:38;26.10;65.00
6518;DHT22;3292;48.944;9.240;2023-06-14T15:43:05;26.10;66.40
6518;DHT22;3292;48.944;9.240;2023-06-14T15:45:31;26.10;66.20
6518;DHT22;3292;48.944;9.240;2023-06-14T15:47:58;26.20;65.90
6518;DHT22;3292;48.944;9.240;2023-06-14T15:50:27;26.30;65.20
6518;DHT22;3292;48.944;9.240;2023-06-14T15:52:53;26.20;64.30
6518;DHT22;3292;48.944;9.240;2023-06-14T15:55:20;26.10;66.30
6518;DHT22;3292;48.944;9.240;2023-06-14T15:57:47;26.00;66.60
6518;DHT22;3292;48.944;9.240;2023-06-14T16:00:15;26.00;66.90
6518;DHT22;3292;48.944;9.240;2023-06-14T16:02:42;26.10;67.40
6518;DHT22;3292;48.944;9.240;2023-06-14T16:05:09;26.20;66.50
6518;DHT22;3292;48.944;9.240;2023-06-14T16:07:37;26.30;66.30